Time;durP1;ratioP1;P1;durP2;ratioP2;P2;SDS_P1;SDS_P2;PMS_P1;PMS_P2;Temp;Humidity;BMP_temperature;BMP_pressure;BME280_temperature;BME280_humidity;BME280_pressure;Samples;Min_cycle;Max_cycle;Signal;HPM_P1;HPM_P2
2024/02/04 00:00:13;;;;;;;5.27;3.13;;;;;;;9.14;95.45;101251.44;4993308;28;20216;-81
2024/02/04 00:02:41;;;;;;;5.13;3.67;;;;;;;9.13;95.75;101247.97;4998365;28;20207;-80
2024/02/04 00:05:08;;;;;;;5.17;3.77;;;;;;;9.14;96.13;101240.81;4993021;28;20219;-81
2024/02/04 00:07:34;;;;;;;4.77;3.60;;;;;;;9.10;96.51;101237.47;4997681;28;20231;-80
2024/02/04 00:10:01;;;;;;;7.23;3.80;;;;;;;9.12;96.27;101234.75;4998132;28;20203;-81
2024/02/04 00:12:27;;;;;;;4.63;3.43;;;;;;;9.09;95.70;101233.09;4992357;28;20235;-81
2024/02/04 00:14:54;;;;;;;4.57;3.40;;;;;;;9.07;94.84;101234.97;4991622;28;20260;-80
2024/02/04 00:17:20;;;;;;;5.73;3.17;;;;;;;9.05;94.24;101245.66;4995086;28;20224;-80
2024/02/04 00:19:48;;;;;;;5.13;3.20;;;;;;;9.02;94.21;101240.47;4994571;28;20203;-80
2024/02/04 00:22:17;;;;;;;4.87;3.20;;;;;;;9.03;94.00;101233.38;4995967;28;20206;-80
2024/02/04 00:24:45;;;;;;;6.10;3.37;;;;;;;9.01;93.88;101222.81;5004243;28;20203;-81
2024/02/04 00:27:11;;;;;;;6.80;3.83;;;;;;;9.02;94.05;101229.84;4982587;28;20746;-80
2024/02/04 00:29:38;;;;;;;6.50;3.40;;;;;;;9.07;93.31;101239.41;5001414;28;20214;-81
2024/02/04 00:32:05;;;;;;;4.70;3.40;;;;;;;9.05;93.55;101234.16;4989720;28;20219;-81
2024/02/04 00:34:31;;;;;;;4.47;3.60;;;;;;;9.03;93.98;101220.94;4991802;28;20204;-80
2024/02/04 00:37:00;;;;;;;7.27;4.07;;;;;;;9.03;93.99;101228.91;4997854;28;20231;-80
2024/02/04 00:39:26;;;;;;;7.07;4.00;;;;;;;9.03;94.55;101225.41;4993243;28;20223;-80
2024/02/04 00:41:53;;;;;;;6.37;4.40;;;;;;;8.99;95.10;101214.06;4997731;28;20207;-81
2024/02/04 00:44:19;;;;;;;5.50;4.23;;;;;;;8.97;95.44;101213.25;4995005;28;20203;-80
2024/02/04 00:46:46;;;;;;;6.50;4.00;;;;;;;8.99;95.76;101215.84;4994985;28;20223;-80
2024/02/04 00:49:12;;;;;;;5.67;3.60;;;;;;;8.91;95.65;101202.09;4995613;28;20208;-80
2024/02/04 00:51:39;;;;;;;8.00;3.93;;;;;;;8.91;95.85;101196.78;4997044;28;20834;-80
2024/02/04 00:54:06;;;;;;;4.70;3.37;;;;;;;8.88;95.32;101186.28;4998355;28;20562;-80
2024/02/04 00:56:33;;;;;;;6.13;3.63;;;;;;;8.81;94.88;101195.47;4996492;28;20235;-80
2024/02/04 00:58:59;;;;;;;5.07;3.10;;;;;;;8.77;94.63;101189.47;5003227;28;20282;-80
2024/02/04 01:01:26;;;;;;;6.97;3.50;;;;;;;8.77;93.99;101193.91;5000691;28;20204;-80
2024/02/04 01:03:52;;;;;;;8.13;3.37;;;;;;;8.77;94.47;101191.25;5001019;28;20661;-80
2024/02/04 01:06:19;;;;;;;5.37;4.17;;;;;;;8.77;94.64;101180.63;4999637;28;20598;-80
2024/02/04 01:08:46;;;;;;;6.30;3.83;;;;;;;8.75;95.50;101179.84;5006137;28;20233;-80
2024/02/04 01:11:13;;;;;;;7.03;4.37;;;;;;;8.73;95.26;101177.25;5002464;28;20231;-80
2024/02/04 01:13:40;;;;;;;7.77;4.10;;;;;;;8.73;95.73;101177.25;4998322;28;20235;-81
2024/02/04 01:16:06;;;;;;;6.40;4.80;;;;;;;8.74;96.72;101181.63;5004436;28;20237;-81
2024/02/04 01:18:33;;;;;;;8.37;5.00;;;;;;;8.72;96.88;101186.16;4993740;28;20219;-81
2024/02/04 01:21:00;;;;;;;7.07;4.80;;;;;;;8.72;97.65;101186.16;4997710;28;20643;-81
2024/02/04 01:23:27;;;;;;;8.27;6.00;;;;;;;8.70;98.23;101196.00;5002424;28;20258;-80
2024/02/04 01:25:53;;;;;;;8.03;5.43;;;;;;;8.71;98.79;101195.06;4990914;28;20692;-80
2024/02/04 01:28:21;;;;;;;7.30;5.23;;;;;;;8.73;99.18;101187.88;4998107;28;20212;-80
2024/02/04 01:30:47;;;;;;;6.27;5.13;;;;;;;8.72;98.73;101193.25;4998997;28;20287;-80
2024/02/04 01:33:14;;;;;;;7.37;5.23;;;;;;;8.71;99.55;101195.06;4999490;28;20207;-80
2024/02/04 01:35:40;;;;;;;9.87;5.73;;;;;;;8.72;99.54;101193.25;5007262;28;20207;-80
2024/02/04 01:38:07;;;;;;;9.00;5.90;;;;;;;8.70;99.21;101204.81;5000972;28;20220;-79
2024/02/04 01:40:34;;;;;;;7.80;5.60;;;;;;;8.72;99.64;101203.88;4995127;28;20212;-79
2024/02/04 01:43:00;;;;;;;8.13;5.07;;;;;;;8.73;99.56;101195.84;5006725;28;20202;-79
2024/02/04 01:45:28;;;;;;;6.73;5.23;;;;;;;8.77;99.23;101209.84;5003309;28;20214;-80
2024/02/04 01:47:55;;;;;;;7.23;5.37;;;;;;;8.77;99.05;101207.19;4999151;28;20214;-79
2024/02/04 01:50:22;;;;;;;7.67;5.60;;;;;;;8.78;99.17;101200.97;4989243;28;20250;-79
2024/02/04 01:52:49;;;;;;;8.43;5.27;;;;;;;8.76;99.58;101190.41;4998953;28;20235;-79
2024/02/04 01:55:15;;;;;;;7.40;4.97;;;;;;;8.74;99.66;101192.25;4996088;28;20231;-79
2024/02/04 01:57:43;;;;;;;7.00;5.20;;;;;;;8.77;98.92;101185.94;4993937;28;20230;-79
2024/02/04 02:00:10;;;;;;;7.87;5.43;;;;;;;8.74;99.63;101194.91;4999294;28;20267;-79
2024/02/04 02:02:41;;;;;;;10.40;5.90;;;;;;;8.75;100.00;101194.00;4994435;28;20200;-79
2024/02/04 02:05:08;;;;;;;11.13;6.83;;;;;;;8.79;100.00;101192.03;4998370;28;20219;-79
2024/02/04 02:07:34;;;;;;;11.63;8.23;;;;;;;8.80;100.00;101191.09;4992386;28;20258;-79
2024/02/04 02:10:01;;;;;;;10.50;7.40;;;;;;;8.83;100.00;101181.19;4995794;28;20210;-79
2024/02/04 02:12:32;;;;;;;11.30;8.10;;;;;;;8.85;100.00;101176.66;4997343;28;20238;-78
2024/02/04 02:15:04;;;;;;;11.13;8.27;;;;;;;8.85;100.00;101178.47;4996162;28;20597;-81
2024/02/04 02:17:39;;;;;;;14.53;8.43;;;;;;;8.87;100.00;101180.13;4997702;28;20223;-79
2024/02/04 02:20:13;;;;;;;12.53;8.43;;;;;;;8.86;100.00;101167.78;4994466;28;20195;-79
2024/02/04 02:22:48;;;;;;;12.23;8.47;;;;;;;8.86;100.00;101170.44;4994476;28;20207;-79
2024/02/04 02:25:17;;;;;;;12.13;8.40;;;;;;;8.87;100.00;101165.97;4993516;28;20573;-79
2024/02/04 02:27:47;;;;;;;10.47;8.57;;;;;;;8.86;100.00;101153.63;4996021;28;20265;-79
2024/02/04 02:30:14;;;;;;;12.13;8.13;;;;;;;8.86;100.00;101156.28;4993580;28;20250;-79
2024/02/04 02:32:41;;;;;;;10.47;8.43;;;;;;;8.84;100.00;101155.50;4993648;28;20231;-79
2024/02/04 02:35:07;;;;;;;10.13;7.97;;;;;;;8.81;100.00;101159.16;4998337;28;20612;-79
2024/02/04 02:37:41;;;;;;;11.37;8.27;;;;;;;8.80;100.00;101151.25;4993594;28;20246;-79
2024/02/04 02:40:13;;;;;;;10.77;8.70;;;;;;;8.80;100.00;101140.63;4987390;28;20215;-79
2024/02/04 02:42:43;;;;;;;10.73;7.90;;;;;;;8.81;100.00;101142.34;4995022;28;20225;-79
2024/02/04 02:45:12;;;;;;;10.67;7.13;;;;;;;8.81;100.00;101140.56;4992588;28;20208;-79
2024/02/04 02:47:40;;;;;;;9.13;6.73;;;;;;;8.81;100.00;101140.56;4995497;28;20231;-79
2024/02/04 02:50:07;;;;;;;8.93;6.93;;;;;;;8.81;100.00;101137.91;4991758;28;20696;-80
2024/02/04 02:52:34;;;;;;;9.87;6.63;;;;;;;8.81;100.00;101142.34;4999954;28;20234;-79
2024/02/04 02:55:00;;;;;;;7.77;6.37;;;;;;;8.81;100.00;101140.56;4995579;28;20240;-79
2024/02/04 02:57:27;;;;;;;9.43;6.40;;;;;;;8.80;100.00;101135.31;4997071;28;20227;-80
2024/02/04 02:59:55;;;;;;;8.57;6.20;;;;;;;8.80;100.00;101138.84;4994416;28;20207;-80
2024/02/04 03:02:21;;;;;;;8.37;5.90;;;;;;;8.78;100.00;101142.53;4991920;28;20210;-80
2024/02/04 03:04:47;;;;;;;8.00;5.70;;;;;;;8.80;100.00;101137.97;5002161;28;20207;-80
2024/02/04 03:07:14;;;;;;;7.63;6.30;;;;;;;8.80;100.00;101130.88;4994751;28;20223;-80
2024/02/04 03:09:40;;;;;;;6.23;5.13;;;;;;;8.81;100.00;101132.59;4997805;28;20550;-79
2024/02/04 03:12:07;;;;;;;9.57;5.53;;;;;;;8.85;100.00;101135.97;4994347;28;20228;-79
2024/02/04 03:14:34;;;;;;;8.93;5.43;;;;;;;8.83;100.00;101128.06;5001779;28;20207;-80
2024/02/04 03:17:01;;;;;;;8.50;5.30;;;;;;;8.84;100.00;101127.13;4992834;28;20242;-80
2024/02/04 03:19:28;;;;;;;6.53;5.80;;;;;;;8.85;100.00;101128.88;4994422;28;20583;-79
2024/02/04 03:21:54;;;;;;;7.47;5.57;;;;;;;8.86;100.00;101121.75;4987392;28;21400;-79
2024/02/04 03:24:21;;;;;;;8.47;5.30;;;;;;;8.86;100.00;101122.63;4996771;28;20584;-79
2024/02/04 03:26:47;;;;;;;8.40;5.70;;;;;;;8.88;100.00;101117.22;4996821;28;20599;-80
2024/02/04 03:29:14;;;;;;;7.23;6.20;;;;;;;8.87;100.00;101121.69;4996982;28;20206;-80
2024/02/04 03:31:40;;;;;;;7.93;5.67;;;;;;;8.91;100.00;101117.94;4994822;28;20814;-79
2024/02/04 03:34:08;;;;;;;12.47;6.93;;;;;;;8.91;100.00;101122.41;4996615;28;20211;-79
2024/02/04 03:36:37;;;;;;;7.50;6.27;;;;;;;8.90;100.00;101121.53;4990935;28;20220;-79
2024/02/04 03:39:04;;;;;;;9.80;7.00;;;;;;;8.92;100.00;101114.34;4997712;28;20203;-79
2024/02/04 03:41:30;;;;;;;8.93;7.00;;;;;;;8.90;100.00;101116.22;4995500;28;20230;-79
2024/02/04 03:43:57;;;;;;;8.90;7.73;;;;;;;8.90;100.00;101102.94;4996661;28;20210;-80
2024/02/04 03:46:23;;;;;;;13.27;9.13;;;;;;;8.89;100.00;101098.56;4994969;28;20238;-79
2024/02/04 03:48:50;;;;;;;10.87;8.40;;;;;;;8.89;100.00;101117.16;4997723;28;20219;-80
2024/02/04 03:51:18;;;;;;;11.93;8.10;;;;;;;8.90;100.00;101116.22;4994514;28;20215;-80
2024/02/04 03:53:45;;;;;;;13.70;7.83;;;;;;;8.90;100.00;101115.38;4991710;28;20211;-79
2024/02/04 03:56:12;;;;;;;9.33;7.13;;;;;;;8.90;100.00;101118.03;4996106;28;20230;-79
2024/02/04 03:58:38;;;;;;;9.53;6.97;;;;;;;8.91;100.00;101109.97;4993238;28;20223;-80
2024/02/04 04:01:05;;;;;;;10.30;7.07;;;;;;;8.92;100.00;101109.03;4994681;28;20602;-81
2024/02/04 04:03:31;;;;;;;7.43;6.37;;;;;;;8.94;100.00;101116.94;5003744;28;20200;-81
2024/02/04 04:05:58;;;;;;;9.13;7.03;;;;;;;8.95;100.00;101102.72;5001635;28;20227;-81
2024/02/04 04:08:26;;;;;;;10.40;6.87;;;;;;;8.95;100.00;101097.41;4997308;28;21441;-81
2024/02/04 04:10:52;;;;;;;10.67;6.87;;;;;;;8.96;100.00;101107.06;4994617;28;20203;-80
2024/02/04 04:13:19;;;;;;;10.97;6.50;;;;;;;8.94;100.00;101095.69;4998926;28;20605;-80
2024/02/04 04:15:45;;;;;;;7.80;6.60;;;;;;;8.94;100.00;101101.00;4994638;28;20299;-80
2024/02/04 04:18:12;;;;;;;10.10;6.43;;;;;;;8.93;100.00;101094.81;4996548;28;20566;-80
2024/02/04 04:20:39;;;;;;;8.80;6.23;;;;;;;8.93;100.00;101096.63;4990774;28;20211;-80
2024/02/04 04:23:05;;;;;;;7.23;6.07;;;;;;;8.94;100.00;101099.22;4995923;28;20589;-81
2024/02/04 04:25:33;;;;;;;9.47;6.73;;;;;;;8.94;100.00;101083.28;4995032;28;20290;-80
2024/02/04 04:28:00;;;;;;;7.70;5.87;;;;;;;8.94;100.00;101087.72;4986443;28;20758;-80
2024/02/04 04:30:26;;;;;;;7.87;5.77;;;;;;;8.92;100.00;101098.41;4995874;28;20215;-80
2024/02/04 04:32:53;;;;;;;6.90;5.57;;;;;;;8.93;100.00;101096.63;4992033;28;20227;-80
2024/02/04 04:35:19;;;;;;;9.03;5.70;;;;;;;8.94;100.00;101099.22;4995638;28;20568;-80
2024/02/04 04:37:46;;;;;;;8.40;5.67;;;;;;;8.94;100.00;101085.06;4990805;28;20227;-80
2024/02/04 04:40:13;;;;;;;11.83;5.70;;;;;;;8.93;100.00;101094.81;4988974;28;20215;-80
2024/02/04 04:42:40;;;;;;;6.80;5.07;;;;;;;8.92;100.00;101095.75;4995035;28;20213;-80
2024/02/04 04:45:08;;;;;;;6.53;5.23;;;;;;;8.94;100.00;101082.41;4996785;28;20653;-81
2024/02/04 04:47:35;;;;;;;7.60;4.77;;;;;;;8.94;100.00;101096.56;4990658;28;20290;-81
2024/02/04 04:50:02;;;;;;;6.80;5.23;;;;;;;8.95;100.00;101085.00;4993905;28;20624;-80
2024/02/04 04:52:28;;;;;;;6.53;4.67;;;;;;;8.94;100.00;101077.97;4998963;28;20253;-80
2024/02/04 04:54:55;;;;;;;6.93;5.43;;;;;;;8.94;100.00;101082.41;4990847;28;20210;-80
2024/02/04 04:57:22;;;;;;;5.77;5.23;;;;;;;8.93;100.00;101081.53;4995007;28;20231;-80
2024/02/04 04:59:50;;;;;;;6.57;4.83;;;;;;;8.94;100.00;101098.34;4995708;28;20199;-80
2024/02/04 05:02:16;;;;;;;5.47;3.87;;;;;;;8.94;100.00;101107.19;4994651;28;20649;-80
2024/02/04 05:04:44;;;;;;;4.70;3.97;;;;;;;8.94;100.00;101106.31;4996004;28;20677;-80
2024/02/04 05:07:11;;;;;;;4.57;4.00;;;;;;;8.94;100.00;101083.28;4991274;28;21721;-80
2024/02/04 05:09:37;;;;;;;7.10;4.53;;;;;;;8.92;100.00;101098.41;4998304;28;20664;-80
2024/02/04 05:12:04;;;;;;;4.73;4.23;;;;;;;8.90;100.00;101099.44;4995265;28;20597;-80
2024/02/04 05:14:31;;;;;;;4.53;3.40;;;;;;;8.91;99.10;101095.84;4997956;28;20211;-80
2024/02/04 05:16:59;;;;;;;5.07;3.57;;;;;;;8.90;98.70;101097.63;5002066;28;20219;-80
2024/02/04 05:19:25;;;;;;;4.63;3.20;;;;;;;8.89;97.34;101093.25;4997592;28;20215;-80
2024/02/04 05:21:51;;;;;;;5.63;3.47;;;;;;;8.81;97.14;101098.06;4998144;28;20208;-81
2024/02/04 05:24:18;;;;;;;3.73;2.70;;;;;;;8.78;96.02;101106.19;5001405;28;20214;-80
2024/02/04 05:26:44;;;;;;;4.40;2.90;;;;;;;8.77;94.25;101101.84;4992107;28;20231;-80
2024/02/04 05:29:11;;;;;;;3.87;2.60;;;;;;;8.77;94.43;101112.44;5000885;28;20403;-80
2024/02/04 05:31:41;;;;;;;6.73;3.33;;;;;;;8.77;94.23;101120.41;4999475;28;20207;-81
2024/02/04 05:34:09;;;;;;;3.47;2.47;;;;;;;8.77;93.99;101104.50;5002475;28;20219;-80
2024/02/04 05:36:35;;;;;;;4.63;2.77;;;;;;;8.78;94.04;101094.72;4991789;28;20599;-80
2024/02/04 05:39:10;;;;;;;4.47;2.33;;;;;;;8.77;94.92;101091.22;5000303;28;20199;-81
2024/02/04 05:41:36;;;;;;;4.80;2.90;;;;;;;8.81;94.81;101095.41;4995471;28;20214;-80
2024/02/04 05:44:03;;;;;;;4.23;2.20;;;;;;;8.82;95.40;101094.47;5004224;28;20208;-81
2024/02/04 05:46:29;;;;;;;2.83;2.30;;;;;;;8.84;94.96;101089.09;4996960;28;20227;-80
2024/02/04 05:48:56;;;;;;;4.23;2.50;;;;;;;8.81;95.19;101084.78;5005234;28;20203;-81
2024/02/04 05:51:24;;;;;;;3.17;2.30;;;;;;;8.82;95.80;101078.53;4993520;28;20240;-80
2024/02/04 05:53:50;;;;;;;3.17;2.23;;;;;;;8.82;95.37;101077.69;4992621;28;20227;-80
2024/02/04 05:56:17;;;;;;;3.67;2.33;;;;;;;8.83;94.75;101061.66;4996540;28;20234;-80
2024/02/04 05:58:43;;;;;;;4.83;2.70;;;;;;;8.83;95.41;101069.63;4991282;28;20686;-80
2024/02/04 06:01:09;;;;;;;4.80;2.67;;;;;;;8.86;95.92;101082.78;4999440;28;20580;-81
2024/02/04 06:03:36;;;;;;;3.07;2.67;;;;;;;8.89;95.77;101072.00;5000224;28;20207;-81
2024/02/04 06:06:02;;;;;;;4.10;2.47;;;;;;;8.89;95.94;101069.34;5000745;28;20246;-81
2024/02/04 06:08:31;;;;;;;3.17;2.30;;;;;;;8.90;95.34;101056.94;4996673;28;20207;-80
2024/02/04 06:10:57;;;;;;;2.87;1.90;;;;;;;8.90;94.26;101062.25;4998889;28;20210;-81
2024/02/04 06:13:23;;;;;;;4.70;2.33;;;;;;;8.90;94.49;101054.28;4999633;28;20231;-81
2024/02/04 06:15:50;;;;;;;2.37;1.97;;;;;;;8.87;93.30;101057.94;5003361;28;20203;-81
2024/02/04 06:18:17;;;;;;;2.40;1.50;;;;;;;8.87;91.68;101039.34;4996650;28;20204;-80
2024/02/04 06:20:44;;;;;;;2.63;1.50;;;;;;;8.83;91.00;101056.34;5002018;28;20306;-81
2024/02/04 06:23:10;;;;;;;3.90;1.63;;;;;;;8.87;91.07;101041.13;4995668;28;20203;-80
2024/02/04 06:25:38;;;;;;;2.87;2.17;;;;;;;8.84;90.64;101050.13;4997317;28;20226;-81
2024/02/04 06:28:05;;;;;;;2.60;1.80;;;;;;;8.90;90.75;101041.84;4996005;28;20556;-81
2024/02/04 06:30:32;;;;;;;2.97;1.30;;;;;;;8.93;90.81;101041.69;5002522;28;20299;-81
2024/02/04 06:32:58;;;;;;;2.33;1.30;;;;;;;8.95;91.41;101045.16;4997180;28;20224;-81
2024/02/04 06:35:25;;;;;;;1.93;1.63;;;;;;;8.97;91.43;101045.91;4997568;28;21431;-80
2024/02/04 06:37:51;;;;;;;2.10;1.70;;;;;;;8.99;91.75;101038.72;4995590;28;20231;-81
2024/02/04 06:40:18;;;;;;;3.90;1.93;;;;;;;8.99;91.76;101041.38;4997911;28;20242;-81
2024/02/04 06:42:46;;;;;;;4.47;1.63;;;;;;;9.00;91.44;101036.91;5003770;28;20203;-81
2024/02/04 06:45:13;;;;;;;2.40;1.63;;;;;;;9.01;91.85;101028.00;5000249;28;20278;-81
2024/02/04 06:47:40;;;;;;;3.20;1.80;;;;;;;9.01;91.90;101020.91;4996007;28;20230;-81
2024/02/04 06:50:08;;;;;;;2.47;1.57;;;;;;;9.03;91.34;101021.69;4993822;28;20211;-81
2024/02/04 06:52:35;;;;;;;2.50;1.43;;;;;;;9.03;91.30;101021.69;4995528;28;20696;-80
2024/02/04 06:55:01;;;;;;;2.97;1.60;;;;;;;9.05;91.27;101019.81;4988447;28;20712;-80
2024/02/04 06:57:28;;;;;;;1.67;1.30;;;;;;;9.03;91.00;101021.69;4990249;28;20718;-80
2024/02/04 06:59:56;;;;;;;2.87;1.40;;;;;;;9.02;90.82;101035.91;5001669;28;20246;-81
2024/02/04 07:02:22;;;;;;;2.60;1.87;;;;;;;9.02;91.25;101025.28;4993738;28;20211;-81
2024/02/04 07:04:48;;;;;;;1.50;1.40;;;;;;;9.02;90.72;101030.59;4995394;28;20212;-81
2024/02/04 07:07:15;;;;;;;2.27;1.47;;;;;;;9.03;90.62;101007.53;4993565;28;20224;-81
2024/02/04 07:09:41;;;;;;;3.70;1.17;;;;;;;9.05;87.99;100987.94;4993757;28;20755;-81
2024/02/04 07:12:08;;;;;;;2.27;1.03;;;;;;;9.00;87.63;101011.22;4988240;28;20215;-80
2024/02/04 07:14:35;;;;;;;1.97;1.33;;;;;;;9.02;87.74;101005.81;4994335;28;20227;-80
2024/02/04 07:17:03;;;;;;;3.43;1.33;;;;;;;9.00;87.56;101000.59;4992120;28;20400;-81
2024/02/04 07:19:29;;;;;;;1.97;1.10;;;;;;;8.98;87.90;101005.13;4994203;28;20215;-81
2024/02/04 07:21:56;;;;;;;3.60;1.77;;;;;;;8.93;87.29;100996.53;4994628;28;20218;-81
2024/02/04 07:24:22;;;;;;;1.90;1.20;;;;;;;8.91;87.82;100994.91;4996983;28;20210;-81
2024/02/04 07:26:48;;;;;;;1.40;0.90;;;;;;;8.92;87.21;100992.16;4995749;28;20231;-80
2024/02/04 07:29:15;;;;;;;2.03;0.80;;;;;;;8.92;87.61;100988.66;4993548;28;20208;-81
2024/02/04 07:31:43;;;;;;;2.23;1.00;;;;;;;8.94;87.69;101000.06;4998211;28;20219;-80
2024/02/04 07:34:11;;;;;;;2.80;0.93;;;;;;;8.94;87.10;101000.91;4993429;28;20232;-81
2024/02/04 07:36:38;;;;;;;2.43;1.10;;;;;;;8.98;86.97;100989.16;4994970;28;20235;-81
2024/02/04 07:39:04;;;;;;;2.20;1.00;;;;;;;8.96;87.19;100993.69;5001156;28;20199;-80
2024/02/04 07:41:31;;;;;;;2.30;0.97;;;;;;;8.96;87.30;100998.16;5000612;28;20275;-80
2024/02/04 07:43:58;;;;;;;1.33;0.90;;;;;;;8.96;86.80;101009.63;5001874;28;20203;-81
2024/02/04 07:46:24;;;;;;;2.97;1.20;;;;;;;8.97;87.09;101010.50;4999959;28;20705;-81
2024/02/04 07:48:51;;;;;;;3.10;1.17;;;;;;;8.99;87.13;101005.97;4991598;28;20203;-81
2024/02/04 07:51:20;;;;;;;3.10;1.33;;;;;;;8.98;87.03;100997.16;4998142;28;20299;-81
2024/02/04 07:53:46;;;;;;;2.67;1.10;;;;;;;9.03;86.55;100996.91;5002814;28;20223;-81
2024/02/04 07:56:13;;;;;;;2.60;1.30;;;;;;;9.00;86.50;100978.47;4996598;28;20235;-81
2024/02/04 07:58:39;;;;;;;1.97;1.40;;;;;;;9.02;86.87;100993.41;5000653;28;20203;-81
2024/02/04 08:01:06;;;;;;;2.93;1.80;;;;;;;9.04;87.60;100995.97;4997097;28;20203;-81
2024/02/04 08:03:32;;;;;;;3.37;1.40;;;;;;;9.05;87.00;100993.25;4998966;28;20207;-81
2024/02/04 08:05:58;;;;;;;4.37;1.60;;;;;;;9.02;87.21;101001.38;5001163;28;20227;-81
2024/02/04 08:08:26;;;;;;;2.70;0.93;;;;;;;9.03;87.07;100988.94;4997591;28;20218;-79
2024/02/04 08:10:53;;;;;;;1.67;1.00;;;;;;;9.06;86.33;100996.75;4997406;28;20211;-80
2024/02/04 08:13:19;;;;;;;3.20;1.00;;;;;;;9.04;85.79;100982.69;4996879;28;20231;-81
2024/02/04 08:15:46;;;;;;;2.80;1.07;;;;;;;9.03;85.84;100981.84;4993337;28;20199;-81
2024/02/04 08:18:12;;;;;;;2.13;0.83;;;;;;;9.01;85.51;100989.03;4992086;28;20212;-80
2024/02/04 08:20:39;;;;;;;1.90;0.83;;;;;;;9.02;84.72;100988.09;4994679;28;20212;-81
2024/02/04 08:23:05;;;;;;;3.17;0.93;;;;;;;8.99;85.05;100982.94;4995904;28;20211;-80
2024/02/04 08:25:33;;;;;;;2.40;1.07;;;;;;;9.03;84.69;100996.91;4994167;28;20227;-80
2024/02/04 08:27:59;;;;;;;1.03;0.80;;;;;;;9.01;83.71;101004.97;5002087;28;20223;-81
2024/02/04 08:30:26;;;;;;;2.10;0.80;;;;;;;8.98;84.02;100988.31;4988453;28;20200;-81
2024/02/04 08:32:58;;;;;;;3.03;1.20;;;;;;;8.97;84.37;100989.25;4996671;28;20793;-81
2024/02/04 08:35:24;;;;;;;3.47;1.20;;;;;;;8.93;83.36;100993.88;4995648;28;20222;-81
2024/02/04 08:37:50;;;;;;;5.97;0.80;;;;;;;8.94;83.49;100977.00;4996660;28;20227;-81
2024/02/04 08:40:17;;;;;;;2.83;1.10;;;;;;;8.95;82.51;100989.34;4995864;28;20226;-80
2024/02/04 08:42:45;;;;;;;3.57;0.83;;;;;;;8.96;82.65;100984.88;4989949;28;20211;-81
2024/02/04 08:45:12;;;;;;;2.30;1.17;;;;;;;8.92;81.97;100989.50;4990963;28;20659;-81
2024/02/04 08:47:38;;;;;;;3.03;0.97;;;;;;;8.90;82.80;101004.66;4994566;28;20234;-80
2024/02/04 08:50:06;;;;;;;5.90;1.10;;;;;;;8.89;82.52;100989.66;4997473;28;20204;-80
2024/02/04 08:52:32;;;;;;;5.17;0.80;;;;;;;8.90;81.98;101002.00;5000142;28;20218;-81
2024/02/04 08:54:59;;;;;;;3.10;1.07;;;;;;;8.89;82.37;101002.94;4996475;28;20227;-81
2024/02/04 08:57:26;;;;;;;3.03;0.97;;;;;;;8.90;82.26;101003.81;4998201;28;20227;-80
2024/02/04 08:59:54;;;;;;;3.50;0.80;;;;;;;8.89;82.13;101002.94;4994110;28;20212;-80
2024/02/04 09:02:20;;;;;;;3.37;1.20;;;;;;;8.91;81.66;101002.88;4993282;28;20211;-81
2024/02/04 09:04:47;;;;;;;2.63;0.90;;;;;;;8.88;82.66;101006.53;4992674;28;20643;-81
2024/02/04 09:07:13;;;;;;;4.30;1.17;;;;;;;8.90;82.83;100994.03;4996323;28;20234;-81
2024/02/04 09:09:41;;;;;;;3.70;1.20;;;;;;;8.87;81.85;100986.22;4997269;28;20211;-81
2024/02/04 09:12:08;;;;;;;5.40;1.30;;;;;;;8.85;81.97;101004.03;4998526;28;20684;-80
2024/02/04 09:14:35;;;;;;;2.27;1.03;;;;;;;8.88;81.14;101000.34;4995631;28;20227;-80
2024/02/04 09:17:04;;;;;;;6.60;1.40;;;;;;;8.92;81.97;101001.94;4997343;28;20234;-81
2024/02/04 09:19:31;;;;;;;7.50;2.07;;;;;;;8.92;81.42;101008.09;4995271;28;20654;-80
2024/02/04 09:21:58;;;;;;;3.13;1.07;;;;;;;8.92;81.68;101010.75;4996934;28;20216;-81
2024/02/04 09:24:24;;;;;;;3.47;1.07;;;;;;;8.92;80.45;101013.41;4997939;28;20200;-80
2024/02/04 09:26:51;;;;;;;2.30;1.00;;;;;;;8.94;81.06;101008.03;4998555;28;20234;-81
2024/02/04 09:29:17;;;;;;;5.27;1.80;;;;;;;8.95;80.42;101012.41;4997725;28;20213;-81
2024/02/04 09:31:44;;;;;;;5.10;1.17;;;;;;;8.94;79.85;101013.34;4995706;28;20210;-81
2024/02/04 09:34:11;;;;;;;5.30;1.20;;;;;;;8.95;79.25;101002.63;4991564;28;20231;-81
2024/02/04 09:36:38;;;;;;;5.87;2.00;;;;;;;8.95;79.06;100997.31;4995533;28;20564;-81
2024/02/04 09:39:04;;;;;;;4.47;1.40;;;;;;;8.95;78.65;100994.66;4994443;28;20204;-81
2024/02/04 09:41:31;;;;;;;74.60;8.30;;;;;;;8.97;79.92;100991.91;4998660;28;20235;-82
2024/02/04 09:44:00;;;;;;;14.63;2.00;;;;;;;9.00;79.62;101000.59;4997482;28;20203;-82
2024/02/04 09:46:27;;;;;;;6.80;1.87;;;;;;;9.01;79.68;101002.31;4993583;28;20234;-81
2024/02/04 09:48:56;;;;;;;5.23;1.13;;;;;;;9.03;79.28;101003.09;4991454;28;20583;-81
2024/02/04 09:51:24;;;;;;;2.63;0.97;;;;;;;9.04;79.12;101014.56;4991153;28;20299;-81
2024/02/04 09:53:53;;;;;;;7.43;1.60;;;;;;;9.04;78.84;101006.59;4995001;28;20239;-81
2024/02/04 09:56:23;;;;;;;4.60;1.40;;;;;;;9.09;79.06;101001.94;4998198;28;20704;-80
2024/02/04 09:58:52;;;;;;;6.83;1.50;;;;;;;9.10;79.07;100994.81;4998250;28;20214;-80
2024/02/04 10:01:22;;;;;;;4.97;1.50;;;;;;;9.10;78.66;100987.72;4996172;28;20209;-81
2024/02/04 10:03:50;;;;;;;6.17;3.13;;;;;;;9.08;78.24;100986.91;4995524;28;20222;-81
2024/02/04 10:06:16;;;;;;;6.90;3.20;;;;;;;9.05;77.23;100998.56;4993789;28;20254;-81
2024/02/04 10:08:45;;;;;;;6.77;2.77;;;;;;;9.08;77.51;101004.66;4992333;28;20588;-81
2024/02/04 10:11:12;;;;;;;6.50;1.70;;;;;;;9.08;77.69;101012.63;4999559;28;20208;-81
2024/02/04 10:13:46;;;;;;;4.77;1.10;;;;;;;9.08;77.34;101017.94;4998081;28;20239;-81
2024/02/04 10:16:12;;;;;;;5.50;1.37;;;;;;;9.09;77.85;101017.00;4991026;28;20232;-81
2024/02/04 10:18:42;;;;;;;4.77;1.10;;;;;;;9.13;77.79;101014.13;4995442;28;20558;-81
2024/02/04 10:21:16;;;;;;;5.27;1.30;;;;;;;9.15;78.19;101011.34;4998686;28;20252;-81
2024/02/04 10:23:44;;;;;;;3.43;1.00;;;;;;;9.15;77.53;101004.25;4999832;28;20217;-81
2024/02/04 10:26:10;;;;;;;4.03;1.00;;;;;;;9.18;77.35;101024.50;4995784;28;20221;-81
2024/02/04 10:28:37;;;;;;;4.73;1.27;;;;;;;9.16;77.58;101010.41;4997224;28;20215;-81
2024/02/04 10:31:04;;;;;;;5.93;2.00;;;;;;;9.19;78.00;100999.63;4997551;28;20211;-81
2024/02/04 10:33:31;;;;;;;7.37;2.77;;;;;;;9.18;77.67;101001.44;4997101;28;20581;-81
2024/02/04 10:35:57;;;;;;;6.53;1.97;;;;;;;9.17;76.60;101017.44;4996869;28;20204;-80
2024/02/04 10:38:25;;;;;;;6.90;2.30;;;;;;;9.18;76.22;101013.84;4990919;28;20555;-81
2024/02/04 10:40:55;;;;;;;4.33;2.43;;;;;;;9.16;76.30;101011.28;4996469;28;20303;-81
2024/02/04 10:43:23;;;;;;;5.20;1.97;;;;;;;9.21;76.06;101008.38;4988280;28;20212;-80
2024/02/04 10:45:56;;;;;;;5.30;1.30;;;;;;;9.18;75.92;101003.22;4996640;28;20656;-80
2024/02/04 10:48:27;;;;;;;5.13;1.27;;;;;;;9.17;76.45;100999.72;4991052;28;20208;-80
2024/02/04 10:50:56;;;;;;;6.63;1.73;;;;;;;9.19;76.59;100992.53;4992522;28;20582;-80
2024/02/04 10:53:23;;;;;;;5.97;1.67;;;;;;;9.25;76.96;101001.97;4995845;28;20274;-81
2024/02/04 10:55:50;;;;;;;2.87;1.30;;;;;;;9.28;75.73;100996.50;4994333;28;20787;-81
2024/02/04 10:58:19;;;;;;;4.23;1.47;;;;;;;9.28;76.43;100989.41;4996161;28;20211;-81
2024/02/04 11:00:46;;;;;;;6.77;1.20;;;;;;;9.32;75.98;100980.31;4998335;28;20674;-81
2024/02/04 11:03:16;;;;;;;4.57;1.20;;;;;;;9.36;75.18;100975.69;4995240;28;20578;-81
2024/02/04 11:05:44;;;;;;;3.60;1.20;;;;;;;9.34;75.59;100982.88;4999714;28;20581;-80
2024/02/04 11:08:12;;;;;;;3.20;1.03;;;;;;;9.33;76.08;100986.47;4995913;28;20632;-81
2024/02/04 11:10:40;;;;;;;2.83;1.30;;;;;;;9.40;76.21;100980.78;5000602;28;20230;-81
2024/02/04 11:13:09;;;;;;;4.53;1.43;;;;;;;9.41;75.07;100973.66;4994680;28;20246;-80
2024/02/04 11:15:39;;;;;;;4.23;1.10;;;;;;;9.39;74.68;100964.91;4998731;28;20236;-81
2024/02/04 11:18:46;;;;;;;4.80;1.43;;;;;;;9.44;74.38;100977.94;4999795;28;20309;-81
2024/02/04 11:21:41;;;;;;;4.53;1.20;;;;;;;9.45;74.53;100955.75;4996991;28;20591;-80
2024/02/04 11:24:23;;;;;;;2.67;1.30;;;;;;;9.45;74.00;100961.06;4994483;28;20212;-80
2024/02/04 11:26:50;;;;;;;2.93;1.00;;;;;;;9.44;73.90;100946.06;4999141;28;20568;-80
2024/02/04 11:29:17;;;;;;;5.83;1.67;;;;;;;9.45;73.87;100926.50;4996323;28;20211;-79